sensor_id;sensor_type;location;lat;lon;timestamp;pressure;altitude;pressure_sealevel;temperature;humidity
28310;BME280;15571;50.974;13.936;2023-02-28T00:00:56;101485.56;;;0.90;100.00
28310;BME280;15571;50.974;13.936;2023-02-28T00:04:03;101490.63;;;0.89;100.00
28310;BME280;15571;50.974;13.936;2023-02-28T00:07:05;101481.94;;;0.87;100.00
28310;BME280;15571;50.974;13.936;2023-02-28T00:10:08;101489.69;;;0.87;100.00
28310;BME280;15571;50.974;13.936;2023-02-28T00:13:12;101492.25;;;0.87;100.00
28310;BME280;15571;50.974;13.936;2023-02-28T00:16:18;101494.03;;;0.88;100.00
28310;BME280;15571;50.974;13.936;2023-02-28T00:19:25;101488.16;;;0.90;100.00
28310;BME280;15571;50.974;13.936;2023-02-28T00:22:27;101485.72;;;0.93;100.00
28310;BME280;15571;50.974;13.936;2023-02-28T00:25:29;101490.97;;;0.95;100.00
28310;BME280;15571;50.974;13.936;2023-02-28T00:28:31;101485.81;;;0.95;100.00
28310;BME280;15571;50.974;13.936;2023-02-28T00:31:33;101483.00;;;0.90;100.00
28310;BME280;15571;50.974;13.936;2023-02-28T00:34:37;101476.78;;;0.87;100.00
28310;BME280;15571;50.974;13.936;2023-02-28T00:37:39;101475.00;;;0.86;100.00
28310;BME280;15571;50.974;13.936;2023-02-28T00:40:41;101480.31;;;0.89;100.00
28310;BME280;15571;50.974;13.936;2023-02-28T00:43:45;101482.09;;;0.90;100.00
28310;BME280;15571;50.974;13.936;2023-02-28T00:46:47;101476.94;;;0.90;100.00
28310;BME280;15571;50.974;13.936;2023-02-28T00:49:50;101477.72;;;0.89;100.00
28310;BME280;15571;50.974;13.936;2023-02-28T00:52:52;101472.50;;;0.87;100.00
28310;BME280;15571;50.974;13.936;2023-02-28T00:55:54;101473.22;;;0.85;100.00
28310;BME280;15571;50.974;13.936;2023-02-28T00:59:00;101475.75;;;0.83;100.00
28310;BME280;15571;50.974;13.936;2023-02-28T01:02:04;101471.28;;;0.81;100.00
28310;BME280;15571;50.974;13.936;2023-02-28T01:05:08;101457.66;;;0.67;100.00
28310;BME280;15571;50.974;13.936;2023-02-28T01:08:11;101480.94;;;0.68;100.00
28310;BME280;15571;50.974;13.936;2023-02-28T01:11:14;101473.28;;;0.70;100.00
28310;BME280;15571;50.974;13.936;2023-02-28T01:14:17;101475.94;;;0.71;100.00
28310;BME280;15571;50.974;13.936;2023-02-28T01:17:22;101468.69;;;0.64;100.00
28310;BME280;15571;50.974;13.936;2023-02-28T01:20:26;101475.97;;;0.56;100.00
28310;BME280;15571;50.974;13.936;2023-02-28T01:23:28;101471.72;;;0.57;100.00
28310;BME280;15571;50.974;13.936;2023-02-28T01:26:30;101475.25;;;0.59;100.00
28310;BME280;15571;50.974;13.936;2023-02-28T01:29:32;101470.81;;;0.56;100.00
28310;BME280;15571;50.974;13.936;2023-02-28T01:32:34;101470.09;;;0.59;100.00
28310;BME280;15571;50.974;13.936;2023-02-28T01:35:37;101465.84;;;0.59;100.00
28310;BME280;15571;50.974;13.936;2023-02-28T01:38:39;101464.25;;;0.61;100.00
28310;BME280;15571;50.974;13.936;2023-02-28T01:41:41;101461.75;;;0.63;100.00
28310;BME280;15571;50.974;13.936;2023-02-28T01:45:01;101461.03;;;0.66;100.00
28310;BME280;15571;50.974;13.936;2023-02-28T01:48:05;101460.31;;;0.68;100.00
28310;BME280;15571;50.974;13.936;2023-02-28T01:51:11;101463.84;;;0.70;100.00
28310;BME280;15571;50.974;13.936;2023-02-28T01:54:16;101463.84;;;0.70;100.00
28310;BME280;15571;50.974;13.936;2023-02-28T01:57:24;101453.53;;;0.70;100.00
28310;BME280;15571;50.974;13.936;2023-02-28T02:00:28;101465.47;;;0.68;100.00
28310;BME280;15571;50.974;13.936;2023-02-28T02:03:34;101455.06;;;0.67;100.00
28310;BME280;15571;50.974;13.936;2023-02-28T02:06:40;101454.19;;;0.66;100.00
28310;BME280;15571;50.974;13.936;2023-02-28T02:09:45;101458.53;;;0.67;100.00
28310;BME280;15571;50.974;13.936;2023-02-28T02:12:52;101460.16;;;0.65;100.00
28310;BME280;15571;50.974;13.936;2023-02-28T02:16:04;101454.63;;;0.59;100.00
28310;BME280;15571;50.974;13.936;2023-02-28T02:19:14;101455.91;;;0.51;100.00
28310;BME280;15571;50.974;13.936;2023-02-28T02:25:39;101449.59;;;0.29;100.00
28310;BME280;15571;50.974;13.936;2023-02-28T02:28:56;101442.47;;;0.25;100.00
28310;BME280;15571;50.974;13.936;2023-02-28T02:32:22;101448.25;;;0.21;100.00
28310;BME280;15571;50.974;13.936;2023-02-28T02:35:31;101453.94;;;0.15;100.00
28310;BME280;15571;50.974;13.936;2023-02-28T02:38:38;101448.88;;;0.17;100.00
28310;BME280;15571;50.974;13.936;2023-02-28T02:41:45;101448.88;;;0.17;100.00
28310;BME280;15571;50.974;13.936;2023-02-28T02:44:50;101445.00;;;0.08;100.00
28310;BME280;15571;50.974;13.936;2023-02-28T02:47:58;101453.53;;;0.07;100.00
28310;BME280;15571;50.974;13.936;2023-02-28T02:51:03;101449.88;;;0.04;100.00
28310;BME280;15571;50.974;13.936;2023-02-28T02:54:14;101456.56;;;0.00;100.00
28310;BME280;15571;50.974;13.936;2023-02-28T02:57:22;101453.97;;;0.00;100.00
28310;BME280;15571;50.974;13.936;2023-02-28T03:00:26;101453.78;;;-0.03;100.00
28310;BME280;15571;50.974;13.936;2023-02-28T03:03:31;101455.66;;;-0.01;100.00
28310;BME280;15571;50.974;13.936;2023-02-28T03:06:36;101458.28;;;0.01;100.00
28310;BME280;15571;50.974;13.936;2023-02-28T03:09:38;101463.63;;;0.04;100.00
28310;BME280;15571;50.974;13.936;2023-02-28T03:12:45;101459.47;;;0.06;100.00
28310;BME280;15571;50.974;13.936;2023-02-28T03:15:56;101462.38;;;0.12;100.00
28310;BME280;15571;50.974;13.936;2023-02-28T03:19:02;101461.75;;;0.17;100.00
28310;BME280;15571;50.974;13.936;2023-02-28T03:22:27;101450.75;;;0.19;100.00
28310;BME280;15571;50.974;13.936;2023-02-28T03:25:36;101450.81;;;0.21;100.00
28310;BME280;15571;50.974;13.936;2023-02-28T03:28:41;101452.59;;;0.22;100.00
28310;BME280;15571;50.974;13.936;2023-02-28T03:31:50;101451.00;;;0.24;100.00
28310;BME280;15571;50.974;13.936;2023-02-28T03:34:55;101456.16;;;0.24;100.00
28310;BME280;15571;50.974;13.936;2023-02-28T03:38:03;101451.78;;;0.23;100.00
28310;BME280;15571;50.974;13.936;2023-02-28T03:41:10;101452.59;;;0.22;100.00
28310;BME280;15571;50.974;13.936;2023-02-28T03:44:16;101447.28;;;0.19;100.00
28310;BME280;15571;50.974;13.936;2023-02-28T03:47:20;101445.41;;;0.16;100.00
28310;BME280;15571;50.974;13.936;2023-02-28T03:50:24;101454.75;;;0.14;100.00
28310;BME280;15571;50.974;13.936;2023-02-28T03:53:29;101458.03;;;0.11;100.00
28310;BME280;15571;50.974;13.936;2023-02-28T03:56:33;101456.16;;;0.09;100.00
28310;BME280;15571;50.974;13.936;2023-02-28T03:59:39;101461.06;;;0.04;100.00
28310;BME280;15571;50.974;13.936;2023-02-28T04:02:43;101463.44;;;0.01;100.00
28310;BME280;15571;50.974;13.936;2023-02-28T04:05:47;101464.88;;;-0.04;100.00
28310;BME280;15571;50.974;13.936;2023-02-28T04:08:52;101464.69;;;-0.07;100.00
28310;BME280;15571;50.974;13.936;2023-02-28T04:11:56;101469.69;;;-0.10;100.00
28310;BME280;15571;50.974;13.936;2023-02-28T04:15:00;101472.00;;;-0.15;100.00
28310;BME280;15571;50.974;13.936;2023-02-28T04:18:03;101473.47;;;-0.19;100.00
28310;BME280;15571;50.974;13.936;2023-02-28T04:21:05;101480.06;;;-0.24;100.00
28310;BME280;15571;50.974;13.936;2023-02-28T04:24:10;101482.09;;;-0.33;100.00
28310;BME280;15571;50.974;13.936;2023-02-28T04:27:14;101484.00;;;-0.44;100.00
28310;BME280;15571;50.974;13.936;2023-02-28T04:30:17;101480.09;;;-0.52;100.00
28310;BME280;15571;50.974;13.936;2023-02-28T04:33:19;101479.03;;;-0.56;100.00
28310;BME280;15571;50.974;13.936;2023-02-28T04:36:21;101482.75;;;-0.66;100.00
28310;BME280;15571;50.974;13.936;2023-02-28T04:39:28;101479.69;;;-0.73;100.00
28310;BME280;15571;50.974;13.936;2023-02-28T04:42:30;101492.63;;;-0.72;100.00
28310;BME280;15571;50.974;13.936;2023-02-28T04:45:35;101488.28;;;-0.73;100.00
28310;BME280;15571;50.974;13.936;2023-02-28T04:48:39;101488.22;;;-0.74;100.00
28310;BME280;15571;50.974;13.936;2023-02-28T04:51:41;101488.84;;;-0.79;100.00
28310;BME280;15571;50.974;13.936;2023-02-28T04:54:45;101495.94;;;-0.88;100.00
28310;BME280;15571;50.974;13.936;2023-02-28T04:57:47;101491.34;;;-0.93;100.00
28310;BME280;15571;50.974;13.936;2023-02-28T05:00:49;101493.81;;;-0.95;100.00
28310;BME280;15571;50.974;13.936;2023-02-28T05:03:51;101494.44;;;-0.99;100.00
28310;BME280;15571;50.974;13.936;2023-02-28T05:06:53;101500.34;;;-1.00;100.00
28310;BME280;15571;50.974;13.936;2023-02-28T05:10:00;101502.44;;;-1.08;100.00
28310;BME280;15571;50.974;13.936;2023-02-28T05:13:05;101504.72;;;-1.13;100.00
28310;BME280;15571;50.974;13.936;2023-02-28T05:16:16;101506.13;;;-1.18;100.00
28310;BME280;15571;50.974;13.936;2023-02-28T05:19:19;101501.66;;;-1.20;100.00
28310;BME280;15571;50.974;13.936;2023-02-28T05:22:23;101506.44;;;-1.27;100.00
28310;BME280;15571;50.974;13.936;2023-02-28T05:25:26;101508.72;;;-1.31;100.00
28310;BME280;15571;50.974;13.936;2023-02-28T05:28:29;101511.50;;;-1.28;100.00
28310;BME280;15571;50.974;13.936;2023-02-28T05:31:31;101507.31;;;-1.26;100.00
28310;BME280;15571;50.974;13.936;2023-02-28T05:34:33;101508.31;;;-1.24;100.00
28310;BME280;15571;50.974;13.936;2023-02-28T05:37:35;101523.13;;;-1.20;100.00
28310;BME280;15571;50.974;13.936;2023-02-28T05:40:39;101510.38;;;-1.18;100.00
28310;BME280;15571;50.974;13.936;2023-02-28T05:43:46;101517.38;;;-1.16;100.00
28310;BME280;15571;50.974;13.936;2023-02-28T05:46:47;101515.78;;;-1.14;100.00
28310;BME280;15571;50.974;13.936;2023-02-28T05:49:51;101513.03;;;-1.17;100.00
28310;BME280;15571;50.974;13.936;2023-02-28T05:52:54;101528.34;;;-1.18;100.00
28310;BME280;15571;50.974;13.936;2023-02-28T05:55:58;101525.69;;;-1.20;100.00
28310;BME280;15571;50.974;13.936;2023-02-28T05:59:01;101524.72;;;-1.22;100.00
28310;BME280;15571;50.974;13.936;2023-02-28T06:02:03;101528.94;;;-1.22;100.00
28310;BME280;15571;50.974;13.936;2023-02-28T06:05:08;101528.78;;;-1.26;100.00
28310;BME280;15571;50.974;13.936;2023-02-28T06:08:18;101537.34;;;-1.25;100.00
28310;BME280;15571;50.974;13.936;2023-02-28T06:11:22;101533.00;;;-1.26;100.00
28310;BME280;15571;50.974;13.936;2023-02-28T06:14:29;101538.06;;;-1.28;100.00
28310;BME280;15571;50.974;13.936;2023-02-28T06:17:32;101543.91;;;-1.30;100.00
28310;BME280;15571;50.974;13.936;2023-02-28T06:20:36;101546.47;;;-1.30;100.00
28310;BME280;15571;50.974;13.936;2023-02-28T06:23:38;101548.03;;;-1.32;100.00
28310;BME280;15571;50.974;13.936;2023-02-28T06:26:41;101546.25;;;-1.33;100.00
28310;BME280;15571;50.974;13.936;2023-02-28T06:29:43;101551.31;;;-1.35;100.00
28310;BME280;15571;50.974;13.936;2023-02-28T06:32:45;101563.38;;;-1.34;100.00
28310;BME280;15571;50.974;13.936;2023-02-28T06:35:50;101566.81;;;-1.33;100.00
28310;BME280;15571;50.974;13.936;2023-02-28T06:38:52;101566.81;;;-1.33;100.00
28310;BME280;15571;50.974;13.936;2023-02-28T06:41:57;101574.81;;;-1.29;100.00
28310;BME280;15571;50.974;13.936;2023-02-28T06:44:59;101579.25;;;-1.26;100.00
28310;BME280;15571;50.974;13.936;2023-02-28T06:48:04;101582.91;;;-1.22;100.00
28310;BME280;15571;50.974;13.936;2023-02-28T06:51:06;101580.53;;;-1.19;100.00
28310;BME280;15571;50.974;13.936;2023-02-28T06:54:09;101583.41;;;-1.15;100.00
28310;BME280;15571;50.974;13.936;2023-02-28T06:57:12;101592.19;;;-1.11;100.00
28310;BME280;15571;50.974;13.936;2023-02-28T07:00:14;101586.38;;;-1.08;100.00
28310;BME280;15571;50.974;13.936;2023-02-28T07:03:16;101585.56;;;-1.07;100.00
28310;BME280;15571;50.974;13.936;2023-02-28T07:06:19;101593.56;;;-1.03;100.00
28310;BME280;15571;50.974;13.936;2023-02-28T16:03:37;101458.47;;;2.36;100.00
28310;BME280;15571;50.974;13.936;2023-02-28T16:06:40;101456.84;;;2.38;100.00
28310;BME280;15571;50.974;13.936;2023-02-28T16:09:44;101452.47;;;2.37;100.00
28310;BME280;15571;50.974;13.936;2023-02-28T16:12:47;101449.91;;;2.37;100.00
28310;BME280;15571;50.974;13.936;2023-02-28T16:15:52;101440.47;;;2.37;100.00
28310;BME280;15571;50.974;13.936;2023-02-28T16:18:59;101443.78;;;2.35;100.00
28310;BME280;15571;50.974;13.936;2023-02-28T16:22:01;101445.47;;;2.34;100.00
28310;BME280;15571;50.974;13.936;2023-02-28T16:25:03;101443.78;;;2.35;100.00
28310;BME280;15571;50.974;13.936;2023-02-28T16:28:08;101435.94;;;2.33;100.00
28310;BME280;15571;50.974;13.936;2023-02-28T16:31:14;101443.63;;;2.31;100.00
28310;BME280;15571;50.974;13.936;2023-02-28T16:34:20;101451.38;;;2.31;100.00
28310;BME280;15571;50.974;13.936;2023-02-28T16:37:22;101446.06;;;2.28;100.00
28310;BME280;15571;50.974;13.936;2023-02-28T16:40:25;101455.44;;;2.26;100.00
28310;BME280;15571;50.974;13.936;2023-02-28T16:43:29;101444.16;;;2.24;100.00
28310;BME280;15571;50.974;13.936;2023-02-28T16:46:32;101451.75;;;2.21;100.00
28310;BME280;15571;50.974;13.936;2023-02-28T16:49:36;101454.19;;;2.18;100.00
28310;BME280;15571;50.974;13.936;2023-02-28T16:52:38;101453.16;;;2.14;100.00
28310;BME280;15571;50.974;13.936;2023-02-28T16:55:40;101453.75;;;2.09;100.00
28310;BME280;15571;50.974;13.936;2023-02-28T16:58:42;101456.09;;;2.04;100.00
28310;BME280;15571;50.974;13.936;2023-02-28T17:01:44;101459.34;;;2.00;100.00
28310;BME280;15571;50.974;13.936;2023-02-28T17:04:50;101460.81;;;1.95;100.00
28310;BME280;15571;50.974;13.936;2023-02-28T17:07:52;101457.84;;;1.87;100.00
28310;BME280;15571;50.974;13.936;2023-02-28T17:19:02;101468.94;;;1.68;100.00
28310;BME280;15571;50.974;13.936;2023-02-28T17:22:09;101472.09;;;1.62;100.00
28310;BME280;15571;50.974;13.936;2023-02-28T17:25:14;101473.72;;;1.60;100.00
28310;BME280;15571;50.974;13.936;2023-02-28T17:28:25;101471.88;;;1.58;100.00
28310;BME280;15571;50.974;13.936;2023-02-28T17:31:27;101476.06;;;1.55;100.00
28310;BME280;15571;50.974;13.936;2023-02-28T17:34:29;101475.88;;;1.52;100.00
28310;BME280;15571;50.974;13.936;2023-02-28T17:37:37;101473.06;;;1.48;100.00
28310;BME280;15571;50.974;13.936;2023-02-28T17:40:46;101469.56;;;1.46;100.00
28310;BME280;15571;50.974;13.936;2023-02-28T17:47:08;101465.66;;;1.37;100.00
28310;BME280;15571;50.974;13.936;2023-02-28T17:50:16;101467.13;;;1.32;100.00
28310;BME280;15571;50.974;13.936;2023-02-28T17:53:21;101471.81;;;1.23;100.00
28310;BME280;15571;50.974;13.936;2023-02-28T17:56:24;101464.38;;;1.13;100.00
28310;BME280;15571;50.974;13.936;2023-02-28T17:59:26;101463.09;;;1.04;100.00
28310;BME280;15571;50.974;13.936;2023-02-28T18:02:36;101462.84;;;1.00;100.00
28310;BME280;15571;50.974;13.936;2023-02-28T18:05:39;101461.09;;;0.99;100.00
28310;BME280;15571;50.974;13.936;2023-02-28T18:08:43;101458.44;;;0.97;100.00
28310;BME280;15571;50.974;13.936;2023-02-28T18:11:49;101460.91;;;0.96;100.00
28310;BME280;15571;50.974;13.936;2023-02-28T18:14:58;101453.03;;;0.92;100.00
28310;BME280;15571;50.974;13.936;2023-02-28T18:18:06;101460.66;;;0.91;100.00
28310;BME280;15571;50.974;13.936;2023-02-28T18:21:08;101467.41;;;0.89;100.00
28310;BME280;15571;50.974;13.936;2023-02-28T18:24:12;101468.06;;;0.85;100.00
28310;BME280;15571;50.974;13.936;2023-02-28T18:27:14;101465.25;;;0.80;100.00
28310;BME280;15571;50.974;13.936;2023-02-28T18:30:17;101465.16;;;0.78;100.00
28310;BME280;15571;50.974;13.936;2023-02-28T18:33:23;101471.22;;;0.79;100.00
28310;BME280;15571;50.974;13.936;2023-02-28T18:36:27;101465.97;;;0.77;100.00
28310;BME280;15571;50.974;13.936;2023-02-28T18:39:32;101464.81;;;0.72;100.00
28310;BME280;15571;50.974;13.936;2023-02-28T18:42:33;101460.31;;;0.68;100.00
28310;BME280;15571;50.974;13.936;2023-02-28T18:45:35;101470.28;;;0.62;100.00
28310;BME280;15571;50.974;13.936;2023-02-28T18:48:43;101466.72;;;0.60;100.00
28310;BME280;15571;50.974;13.936;2023-02-28T18:51:45;101470.09;;;0.59;100.00
28310;BME280;15571;50.974;13.936;2023-02-28T18:54:49;101469.78;;;0.53;100.00
28310;BME280;15571;50.974;13.936;2023-02-28T18:57:50;101466.06;;;0.48;100.00
28310;BME280;15571;50.974;13.936;2023-02-28T19:00:53;101465.00;;;0.44;100.00
28310;BME280;15571;50.974;13.936;2023-02-28T19:04:00;101473.53;;;0.43;100.00
28310;BME280;15571;50.974;13.936;2023-02-28T19:07:09;101471.84;;;0.43;100.00
28310;BME280;15571;50.974;13.936;2023-02-28T19:10:13;101474.41;;;0.43;100.00
28310;BME280;15571;50.974;13.936;2023-02-28T19:13:16;101469.19;;;0.42;100.00
28310;BME280;15571;50.974;13.936;2023-02-28T19:16:20;101476.91;;;0.42;100.00
28310;BME280;15571;50.974;13.936;2023-02-28T19:19:22;101472.63;;;0.42;100.00
28310;BME280;15571;50.974;13.936;2023-02-28T19:22:24;101475.31;;;0.44;100.00
28310;BME280;15571;50.974;13.936;2023-02-28T19:25:32;101484.38;;;0.37;100.00
28310;BME280;15571;50.974;13.936;2023-02-28T19:28:46;101484.19;;;0.34;100.00
28310;BME280;15571;50.974;13.936;2023-02-28T19:32:03;101481.63;;;0.34;100.00
28310;BME280;15571;50.974;13.936;2023-02-28T19:35:08;101480.66;;;0.32;100.00
28310;BME280;15571;50.974;13.936;2023-02-28T19:38:11;101483.94;;;0.29;100.00
28310;BME280;15571;50.974;13.936;2023-02-28T19:41:15;101486.53;;;0.29;100.00
28310;BME280;15571;50.974;13.936;2023-02-28T19:44:17;101485.66;;;0.29;100.00
28310;BME280;15571;50.974;13.936;2023-02-28T19:47:21;101479.59;;;0.28;100.00
28310;BME280;15571;50.974;13.936;2023-02-28T19:50:23;101487.25;;;0.27;100.00
28310;BME280;15571;50.974;13.936;2023-02-28T19:53:25;101492.22;;;0.24;100.00
28310;BME280;15571;50.974;13.936;2023-02-28T19:56:29;101486.88;;;0.21;100.00
28310;BME280;15571;50.974;13.936;2023-02-28T19:59:32;101485.09;;;0.20;100.00
28310;BME280;15571;50.974;13.936;2023-02-28T20:02:34;101487.59;;;0.18;100.00
28310;BME280;15571;50.974;13.936;2023-02-28T20:05:41;101488.31;;;0.15;100.00
28310;BME280;15571;50.974;13.936;2023-02-28T20:08:43;101495.84;;;0.12;100.00
28310;BME280;15571;50.974;13.936;2023-02-28T20:11:47;101501.78;;;0.11;100.00
28310;BME280;15571;50.974;13.936;2023-02-28T20:14:50;101503.56;;;0.12;100.00
28310;BME280;15571;50.974;13.936;2023-02-28T20:17:55;101504.28;;;0.10;100.00
28310;BME280;15571;50.974;13.936;2023-02-28T20:20:59;101493.13;;;0.09;100.00
28310;BME280;15571;50.974;13.936;2023-02-28T20:24:14;101492.28;;;0.10;100.00
28310;BME280;15571;50.974;13.936;2023-02-28T20:27:18;101496.66;;;0.11;100.00
28310;BME280;15571;50.974;13.936;2023-02-28T20:30:20;101493.28;;;0.12;100.00
28310;BME280;15571;50.974;13.936;2023-02-28T20:33:23;101497.56;;;0.12;100.00
28310;BME280;15571;50.974;13.936;2023-02-28T20:36:25;101489.56;;;0.07;100.00
28310;BME280;15571;50.974;13.936;2023-02-28T20:39:27;101487.59;;;0.03;100.00
28310;BME280;15571;50.974;13.936;2023-02-28T20:42:33;101492.59;;;0.00;100.00
28310;BME280;15571;50.974;13.936;2023-02-28T20:45:38;101490.03;;;0.00;100.00
28310;BME280;15571;50.974;13.936;2023-02-28T20:48:42;101485.66;;;-0.01;100.00
28310;BME280;15571;50.974;13.936;2023-02-28T20:51:44;101493.38;;;-0.01;100.00
28310;BME280;15571;50.974;13.936;2023-02-28T20:54:46;101497.56;;;-0.03;100.00
28310;BME280;15571;50.974;13.936;2023-02-28T20:57:49;101493.19;;;-0.04;100.00
28310;BME280;15571;50.974;13.936;2023-02-28T21:00:58;101498.28;;;-0.06;100.00
28310;BME280;15571;50.974;13.936;2023-02-28T21:04:00;101489.44;;;-0.09;100.00
28310;BME280;15571;50.974;13.936;2023-02-28T21:07:02;101497.03;;;-0.12;100.00
28310;BME280;15571;50.974;13.936;2023-02-28T21:10:08;101494.34;;;-0.14;100.00
28310;BME280;15571;50.974;13.936;2023-02-28T21:13:17;101495.84;;;-0.18;100.00
28310;BME280;15571;50.974;13.936;2023-02-28T21:16:25;101487.97;;;-0.21;100.00
28310;BME280;15571;50.974;13.936;2023-02-28T21:19:28;101487.78;;;-0.24;100.00
28310;BME280;15571;50.974;13.936;2023-02-28T21:22:30;101487.50;;;-0.28;100.00
28310;BME280;15571;50.974;13.936;2023-02-28T21:25:34;101493.38;;;-0.31;100.00
28310;BME280;15571;50.974;13.936;2023-02-28T21:28:47;101494.25;;;-0.30;100.00
28310;BME280;15571;50.974;13.936;2023-02-28T21:31:51;101496.81;;;-0.30;100.00
28310;BME280;15571;50.974;13.936;2023-02-28T21:34:59;101491.59;;;-0.32;100.00
28310;BME280;15571;50.974;13.936;2023-02-28T21:38:03;101500.91;;;-0.34;100.00
28310;BME280;15571;50.974;13.936;2023-02-28T21:41:05;101507.63;;;-0.36;100.00
28310;BME280;15571;50.974;13.936;2023-02-28T21:44:09;101518.56;;;-0.40;100.00
28310;BME280;15571;50.974;13.936;2023-02-28T21:47:17;101515.00;;;-0.42;100.00
28310;BME280;15571;50.974;13.936;2023-02-28T21:50:19;101515.78;;;-0.43;100.00
28310;BME280;15571;50.974;13.936;2023-02-28T21:53:26;101508.00;;;-0.45;100.00
28310;BME280;15571;50.974;13.936;2023-02-28T21:56:30;101506.88;;;-0.49;100.00
28310;BME280;15571;50.974;13.936;2023-02-28T21:59:33;101499.00;;;-0.52;100.00
28310;BME280;15571;50.974;13.936;2023-02-28T22:02:35;101495.44;;;-0.54;100.00
28310;BME280;15571;50.974;13.936;2023-02-28T22:05:37;101499.59;;;-0.56;100.00
28310;BME280;15571;50.974;13.936;2023-02-28T22:08:43;101504.59;;;-0.59;100.00
28310;BME280;15571;50.974;13.936;2023-02-28T22:11:45;101501.03;;;-0.61;100.00
28310;BME280;15571;50.974;13.936;2023-02-28T22:14:49;101500.03;;;-0.63;100.00
28310;BME280;15571;50.974;13.936;2023-02-28T22:17:51;101499.06;;;-0.65;100.00
28310;BME280;15571;50.974;13.936;2023-02-28T22:20:54;101503.22;;;-0.67;100.00
28310;BME280;15571;50.974;13.936;2023-02-28T22:23:56;101494.53;;;-0.69;100.00
28310;BME280;15571;50.974;13.936;2023-02-28T22:26:58;101505.41;;;-0.73;100.00
28310;BME280;15571;50.974;13.936;2023-02-28T22:30:07;101508.78;;;-0.74;100.00
28310;BME280;15571;50.974;13.936;2023-02-28T22:33:09;101510.34;;;-0.76;100.00
28310;BME280;15571;50.974;13.936;2023-02-28T22:36:12;101510.19;;;-0.80;100.00
28310;BME280;15571;50.974;13.936;2023-02-28T22:39:15;101506.63;;;-0.82;100.00
28310;BME280;15571;50.974;13.936;2023-02-28T22:42:17;101500.31;;;-0.87;100.00
28310;BME280;15571;50.974;13.936;2023-02-28T22:45:20;101501.81;;;-0.90;100.00
28310;BME280;15571;50.974;13.936;2023-02-28T22:48:22;101499.16;;;-0.92;100.00
28310;BME280;15571;50.974;13.936;2023-02-28T22:51:24;101507.44;;;-0.96;100.00
28310;BME280;15571;50.974;13.936;2023-02-28T22:54:26;101515.94;;;-0.97;100.00
28310;BME280;15571;50.974;13.936;2023-02-28T22:57:28;101509.75;;;-1.01;100.00
28310;BME280;15571;50.974;13.936;2023-02-28T23:00:34;101509.75;;;-1.01;100.00
28310;BME280;15571;50.974;13.936;2023-02-28T23:03:38;101513.09;;;-1.02;100.00
28310;BME280;15571;50.974;13.936;2023-02-28T23:06:41;101513.88;;;-1.03;100.00
28310;BME280;15571;50.974;13.936;2023-02-28T23:09:43;101515.38;;;-1.06;100.00
28310;BME280;15571;50.974;13.936;2023-02-28T23:12:49;101513.03;;;-1.17;100.00
28310;BME280;15571;50.974;13.936;2023-02-28T23:15:53;101518.56;;;-1.24;100.00
28310;BME280;15571;50.974;13.936;2023-02-28T23:18:59;101510.00;;;-1.24;100.00
28310;BME280;15571;50.974;13.936;2023-02-28T23:22:01;101509.09;;;-1.25;100.00
28310;BME280;15571;50.974;13.936;2023-02-28T23:25:04;101514.22;;;-1.25;100.00
28310;BME280;15571;50.974;13.936;2023-02-28T23:28:08;101511.56;;;-1.27;100.00
28310;BME280;15571;50.974;13.936;2023-02-28T23:31:12;101521.75;;;-1.28;100.00
28310;BME280;15571;50.974;13.936;2023-02-28T23:34:14;101512.06;;;-1.32;100.00
28310;BME280;15571;50.974;13.936;2023-02-28T23:37:18;101517.13;;;-1.34;100.00
28310;BME280;15571;50.974;13.936;2023-02-28T23:40:22;101512.47;;;-1.39;100.00
28310;BME280;15571;50.974;13.936;2023-02-28T23:43:27;101518.19;;;-1.44;100.00
28310;BME280;15571;50.974;13.936;2023-02-28T23:46:30;101511.09;;;-1.48;100.00
28310;BME280;15571;50.974;13.936;2023-02-28T23:49:32;101518.69;;;-1.49;100.00
28310;BME280;15571;50.974;13.936;2023-02-28T23:52:35;101521.25;;;-1.49;100.00
28310;BME280;15571;50.974;13.936;2023-02-28T23:55:43;101518.53;;;-1.52;100.00
28310;BME280;15571;50.974;13.936;2023-02-28T23:58:46;101526.31;;;-1.51;100.00
